sensor_id;sensor_type;location;lat;lon;timestamp;temperature;humidity
52513;DHT22;38422;53.172;6.974;2023-12-28T00:00:08;8.20;99.90
52513;DHT22;38422;53.172;6.974;2023-12-28T00:02:34;8.20;99.90
52513;DHT22;38422;53.172;6.974;2023-12-28T00:04:59;8.20;99.90
52513;DHT22;38422;53.172;6.974;2023-12-28T00:07:25;8.20;99.90
52513;DHT22;38422;53.172;6.974;2023-12-28T00:09:51;8.20;99.90
52513;DHT22;38422;53.172;6.974;2023-12-28T00:12:16;8.30;99.90
52513;DHT22;38422;53.172;6.974;2023-12-28T00:14:42;8.30;99.90
52513;DHT22;38422;53.172;6.974;2023-12-28T00:17:08;8.40;99.90
52513;DHT22;38422;53.172;6.974;2023-12-28T00:19:33;8.40;99.90
52513;DHT22;38422;53.172;6.974;2023-12-28T00:21:59;8.40;99.90
52513;DHT22;38422;53.172;6.974;2023-12-28T00:24:25;8.40;99.90
52513;DHT22;38422;53.172;6.974;2023-12-28T00:26:50;8.50;99.90
52513;DHT22;38422;53.172;6.974;2023-12-28T00:29:16;8.50;99.90
52513;DHT22;38422;53.172;6.974;2023-12-28T00:31:41;8.50;99.90
52513;DHT22;38422;53.172;6.974;2023-12-28T00:34:07;8.50;99.90
52513;DHT22;38422;53.172;6.974;2023-12-28T00:36:33;8.60;99.90
52513;DHT22;38422;53.172;6.974;2023-12-28T00:38:58;8.60;99.90
52513;DHT22;38422;53.172;6.974;2023-12-28T00:41:24;8.60;99.90
52513;DHT22;38422;53.172;6.974;2023-12-28T00:43:50;8.60;99.90
52513;DHT22;38422;53.172;6.974;2023-12-28T00:46:15;8.60;99.90
52513;DHT22;38422;53.172;6.974;2023-12-28T00:48:41;8.60;99.90
52513;DHT22;38422;53.172;6.974;2023-12-28T00:51:07;8.60;99.90
52513;DHT22;38422;53.172;6.974;2023-12-28T00:53:33;8.60;99.90
52513;DHT22;38422;53.172;6.974;2023-12-28T00:55:58;8.60;99.90
52513;DHT22;38422;53.172;6.974;2023-12-28T00:58:24;8.60;99.90
52513;DHT22;38422;53.172;6.974;2023-12-28T01:00:50;8.60;99.90
52513;DHT22;38422;53.172;6.974;2023-12-28T01:03:19;8.70;99.90
52513;DHT22;38422;53.172;6.974;2023-12-28T01:05:45;8.70;99.90
52513;DHT22;38422;53.172;6.974;2023-12-28T01:08:13;8.70;99.90
52513;DHT22;38422;53.172;6.974;2023-12-28T01:10:38;8.70;99.90
52513;DHT22;38422;53.172;6.974;2023-12-28T01:13:04;8.70;99.90
52513;DHT22;38422;53.172;6.974;2023-12-28T01:15:30;8.70;99.90
52513;DHT22;38422;53.172;6.974;2023-12-28T01:17:56;8.70;99.90
52513;DHT22;38422;53.172;6.974;2023-12-28T01:20:22;8.70;99.90
52513;DHT22;38422;53.172;6.974;2023-12-28T01:22:47;8.70;99.90
52513;DHT22;38422;53.172;6.974;2023-12-28T01:25:15;8.80;99.90
52513;DHT22;38422;53.172;6.974;2023-12-28T01:27:41;8.80;99.90
52513;DHT22;38422;53.172;6.974;2023-12-28T01:30:07;8.70;99.90
52513;DHT22;38422;53.172;6.974;2023-12-28T01:32:33;8.70;99.90
52513;DHT22;38422;53.172;6.974;2023-12-28T01:34:58;8.80;99.90
52513;DHT22;38422;53.172;6.974;2023-12-28T01:37:24;8.70;99.90
52513;DHT22;38422;53.172;6.974;2023-12-28T01:39:50;8.70;99.90
52513;DHT22;38422;53.172;6.974;2023-12-28T01:42:15;8.70;99.90
52513;DHT22;38422;53.172;6.974;2023-12-28T01:44:41;8.70;99.90
52513;DHT22;38422;53.172;6.974;2023-12-28T01:47:07;8.70;99.90
52513;DHT22;38422;53.172;6.974;2023-12-28T01:49:34;8.70;99.90
52513;DHT22;38422;53.172;6.974;2023-12-28T01:52:01;8.70;99.90
52513;DHT22;38422;53.172;6.974;2023-12-28T01:54:27;8.70;99.90
52513;DHT22;38422;53.172;6.974;2023-12-28T01:56:53;8.70;99.90
52513;DHT22;38422;53.172;6.974;2023-12-28T01:59:19;8.70;99.90
52513;DHT22;38422;53.172;6.974;2023-12-28T02:01:45;8.70;99.90
52513;DHT22;38422;53.172;6.974;2023-12-28T02:04:11;8.70;99.90
52513;DHT22;38422;53.172;6.974;2023-12-28T02:06:38;8.70;99.90
52513;DHT22;38422;53.172;6.974;2023-12-28T02:09:03;8.70;99.90
52513;DHT22;38422;53.172;6.974;2023-12-28T02:11:29;8.70;99.90
52513;DHT22;38422;53.172;6.974;2023-12-28T02:13:55;8.70;99.90
52513;DHT22;38422;53.172;6.974;2023-12-28T02:16:32;8.70;99.90
52513;DHT22;38422;53.172;6.974;2023-12-28T02:19:03;8.70;99.90
52513;DHT22;38422;53.172;6.974;2023-12-28T02:21:30;8.70;99.90
52513;DHT22;38422;53.172;6.974;2023-12-28T02:23:56;8.70;99.90
52513;DHT22;38422;53.172;6.974;2023-12-28T02:26:22;8.70;99.90
52513;DHT22;38422;53.172;6.974;2023-12-28T02:28:48;8.70;99.90
52513;DHT22;38422;53.172;6.974;2023-12-28T02:31:21;8.70;99.90
52513;DHT22;38422;53.172;6.974;2023-12-28T02:33:55;8.70;99.90
52513;DHT22;38422;53.172;6.974;2023-12-28T02:36:24;8.70;99.90
52513;DHT22;38422;53.172;6.974;2023-12-28T02:38:51;8.70;99.90
52513;DHT22;38422;53.172;6.974;2023-12-28T02:41:18;8.70;99.90
52513;DHT22;38422;53.172;6.974;2023-12-28T02:43:44;8.70;99.90
52513;DHT22;38422;53.172;6.974;2023-12-28T02:46:12;8.70;99.90
52513;DHT22;38422;53.172;6.974;2023-12-28T02:48:39;8.70;99.90
52513;DHT22;38422;53.172;6.974;2023-12-28T02:51:04;8.70;99.90
52513;DHT22;38422;53.172;6.974;2023-12-28T02:53:30;8.70;99.90
52513;DHT22;38422;53.172;6.974;2023-12-28T02:55:56;8.70;99.90
52513;DHT22;38422;53.172;6.974;2023-12-28T02:58:21;8.70;99.90
52513;DHT22;38422;53.172;6.974;2023-12-28T03:00:47;8.70;99.90
52513;DHT22;38422;53.172;6.974;2023-12-28T03:03:14;8.70;99.90
52513;DHT22;38422;53.172;6.974;2023-12-28T03:05:39;8.70;99.90
52513;DHT22;38422;53.172;6.974;2023-12-28T03:08:06;8.70;99.90
52513;DHT22;38422;53.172;6.974;2023-12-28T03:10:32;8.80;99.90
52513;DHT22;38422;53.172;6.974;2023-12-28T03:12:58;8.80;99.90
52513;DHT22;38422;53.172;6.974;2023-12-28T03:15:24;8.80;99.90
52513;DHT22;38422;53.172;6.974;2023-12-28T03:17:49;8.90;99.90
52513;DHT22;38422;53.172;6.974;2023-12-28T03:20:15;8.90;99.90
52513;DHT22;38422;53.172;6.974;2023-12-28T03:22:41;8.90;99.90
52513;DHT22;38422;53.172;6.974;2023-12-28T03:25:07;8.90;99.90
52513;DHT22;38422;53.172;6.974;2023-12-28T03:27:32;8.90;99.90
52513;DHT22;38422;53.172;6.974;2023-12-28T03:29:58;8.90;99.90
52513;DHT22;38422;53.172;6.974;2023-12-28T03:32:24;8.90;99.90
52513;DHT22;38422;53.172;6.974;2023-12-28T03:34:49;8.90;99.90
52513;DHT22;38422;53.172;6.974;2023-12-28T03:37:15;8.90;99.90
52513;DHT22;38422;53.172;6.974;2023-12-28T03:39:41;8.90;99.90
52513;DHT22;38422;53.172;6.974;2023-12-28T03:42:06;8.90;99.90
52513;DHT22;38422;53.172;6.974;2023-12-28T03:44:32;8.90;99.90
52513;DHT22;38422;53.172;6.974;2023-12-28T03:46:58;8.90;99.90
52513;DHT22;38422;53.172;6.974;2023-12-28T03:49:23;8.90;99.90
52513;DHT22;38422;53.172;6.974;2023-12-28T03:51:50;9.00;99.90
52513;DHT22;38422;53.172;6.974;2023-12-28T03:54:17;9.00;99.90
52513;DHT22;38422;53.172;6.974;2023-12-28T03:56:43;9.00;99.90
52513;DHT22;38422;53.172;6.974;2023-12-28T03:59:09;9.00;99.90
52513;DHT22;38422;53.172;6.974;2023-12-28T04:01:35;9.10;99.90
52513;DHT22;38422;53.172;6.974;2023-12-28T04:04:01;9.10;99.90
52513;DHT22;38422;53.172;6.974;2023-12-28T04:06:27;9.20;99.90
52513;DHT22;38422;53.172;6.974;2023-12-28T04:08:52;9.20;99.90
52513;DHT22;38422;53.172;6.974;2023-12-28T04:11:18;9.20;99.90
52513;DHT22;38422;53.172;6.974;2023-12-28T04:13:44;9.20;99.90
52513;DHT22;38422;53.172;6.974;2023-12-28T04:16:14;9.20;99.90
52513;DHT22;38422;53.172;6.974;2023-12-28T04:18:43;9.20;99.90
52513;DHT22;38422;53.172;6.974;2023-12-28T04:21:12;9.20;99.90
52513;DHT22;38422;53.172;6.974;2023-12-28T04:23:40;9.10;99.90
52513;DHT22;38422;53.172;6.974;2023-12-28T04:26:06;9.20;99.90
52513;DHT22;38422;53.172;6.974;2023-12-28T04:28:32;9.20;99.90
52513;DHT22;38422;53.172;6.974;2023-12-28T04:31:05;9.20;99.90
52513;DHT22;38422;53.172;6.974;2023-12-28T04:33:31;9.30;99.90
52513;DHT22;38422;53.172;6.974;2023-12-28T04:36:00;9.30;99.90
52513;DHT22;38422;53.172;6.974;2023-12-28T04:38:25;9.30;99.90
52513;DHT22;38422;53.172;6.974;2023-12-28T04:40:51;9.40;99.90
52513;DHT22;38422;53.172;6.974;2023-12-28T04:43:17;9.40;99.90
52513;DHT22;38422;53.172;6.974;2023-12-28T04:45:42;9.40;99.90
52513;DHT22;38422;53.172;6.974;2023-12-28T04:48:08;9.50;99.90
52513;DHT22;38422;53.172;6.974;2023-12-28T04:50:34;9.50;99.90
52513;DHT22;38422;53.172;6.974;2023-12-28T04:52:59;9.50;99.90
52513;DHT22;38422;53.172;6.974;2023-12-28T04:55:25;9.60;99.90
52513;DHT22;38422;53.172;6.974;2023-12-28T04:57:50;9.60;99.90
52513;DHT22;38422;53.172;6.974;2023-12-28T05:00:16;9.60;99.90
52513;DHT22;38422;53.172;6.974;2023-12-28T05:02:42;9.60;99.90
52513;DHT22;38422;53.172;6.974;2023-12-28T05:05:08;9.70;99.90
52513;DHT22;38422;53.172;6.974;2023-12-28T05:07:35;9.70;99.90
52513;DHT22;38422;53.172;6.974;2023-12-28T05:10:01;9.70;99.90
52513;DHT22;38422;53.172;6.974;2023-12-28T05:12:27;9.70;99.90
52513;DHT22;38422;53.172;6.974;2023-12-28T05:14:53;9.70;99.90
52513;DHT22;38422;53.172;6.974;2023-12-28T05:17:19;9.80;99.90
52513;DHT22;38422;53.172;6.974;2023-12-28T05:19:44;9.80;99.90
52513;DHT22;38422;53.172;6.974;2023-12-28T05:22:10;9.80;99.90
52513;DHT22;38422;53.172;6.974;2023-12-28T05:24:36;9.90;99.90
52513;DHT22;38422;53.172;6.974;2023-12-28T05:27:02;9.90;99.90
52513;DHT22;38422;53.172;6.974;2023-12-28T05:29:28;9.90;99.90
52513;DHT22;38422;53.172;6.974;2023-12-28T05:31:54;9.90;99.90
52513;DHT22;38422;53.172;6.974;2023-12-28T05:34:19;9.90;99.90
52513;DHT22;38422;53.172;6.974;2023-12-28T05:36:45;9.90;99.90
52513;DHT22;38422;53.172;6.974;2023-12-28T05:39:11;9.90;99.90
52513;DHT22;38422;53.172;6.974;2023-12-28T05:41:39;10.00;99.90
52513;DHT22;38422;53.172;6.974;2023-12-28T05:44:05;10.00;99.90
52513;DHT22;38422;53.172;6.974;2023-12-28T05:46:31;10.00;99.90
52513;DHT22;38422;53.172;6.974;2023-12-28T05:48:57;10.00;99.90
52513;DHT22;38422;53.172;6.974;2023-12-28T05:51:23;10.10;99.90
52513;DHT22;38422;53.172;6.974;2023-12-28T05:53:48;10.10;99.90
52513;DHT22;38422;53.172;6.974;2023-12-28T05:56:14;10.10;99.90
52513;DHT22;38422;53.172;6.974;2023-12-28T05:58:40;10.10;99.90
52513;DHT22;38422;53.172;6.974;2023-12-28T06:01:06;10.10;99.90
52513;DHT22;38422;53.172;6.974;2023-12-28T06:03:32;10.10;99.90
52513;DHT22;38422;53.172;6.974;2023-12-28T06:05:58;10.10;99.90
52513;DHT22;38422;53.172;6.974;2023-12-28T06:08:23;10.10;99.90
52513;DHT22;38422;53.172;6.974;2023-12-28T06:10:49;10.10;99.90
52513;DHT22;38422;53.172;6.974;2023-12-28T06:13:15;10.10;99.90
52513;DHT22;38422;53.172;6.974;2023-12-28T06:15:41;10.10;99.90
52513;DHT22;38422;53.172;6.974;2023-12-28T06:18:07;10.10;99.90
52513;DHT22;38422;53.172;6.974;2023-12-28T06:20:32;10.10;99.90
52513;DHT22;38422;53.172;6.974;2023-12-28T06:22:58;10.20;99.90
52513;DHT22;38422;53.172;6.974;2023-12-28T06:25:24;10.20;99.90
52513;DHT22;38422;53.172;6.974;2023-12-28T06:27:49;10.20;99.90
52513;DHT22;38422;53.172;6.974;2023-12-28T06:30:15;10.20;99.90
52513;DHT22;38422;53.172;6.974;2023-12-28T06:32:41;10.20;99.90
52513;DHT22;38422;53.172;6.974;2023-12-28T06:35:07;10.20;99.90
52513;DHT22;38422;53.172;6.974;2023-12-28T06:37:32;10.20;99.90
52513;DHT22;38422;53.172;6.974;2023-12-28T06:39:58;10.30;99.90
52513;DHT22;38422;53.172;6.974;2023-12-28T06:42:24;10.30;99.90
52513;DHT22;38422;53.172;6.974;2023-12-28T06:44:49;10.30;99.90
52513;DHT22;38422;53.172;6.974;2023-12-28T06:47:15;10.30;99.90
52513;DHT22;38422;53.172;6.974;2023-12-28T06:49:41;10.30;99.90
52513;DHT22;38422;53.172;6.974;2023-12-28T06:52:06;10.30;99.90
52513;DHT22;38422;53.172;6.974;2023-12-28T06:54:32;10.30;99.90
52513;DHT22;38422;53.172;6.974;2023-12-28T06:56:58;10.20;99.90
52513;DHT22;38422;53.172;6.974;2023-12-28T06:59:23;10.30;99.90
52513;DHT22;38422;53.172;6.974;2023-12-28T07:01:49;10.40;99.90
52513;DHT22;38422;53.172;6.974;2023-12-28T07:04:15;10.40;99.90
52513;DHT22;38422;53.172;6.974;2023-12-28T07:06:41;10.30;99.90
52513;DHT22;38422;53.172;6.974;2023-12-28T07:09:06;10.40;99.90
52513;DHT22;38422;53.172;6.974;2023-12-28T07:11:32;10.30;99.90
52513;DHT22;38422;53.172;6.974;2023-12-28T07:13:58;10.40;99.90
52513;DHT22;38422;53.172;6.974;2023-12-28T07:16:24;10.40;99.90
52513;DHT22;38422;53.172;6.974;2023-12-28T07:18:49;10.40;99.90
52513;DHT22;38422;53.172;6.974;2023-12-28T07:21:15;10.30;99.90
52513;DHT22;38422;53.172;6.974;2023-12-28T07:23:41;10.40;99.90
52513;DHT22;38422;53.172;6.974;2023-12-28T07:26:06;10.40;99.90
52513;DHT22;38422;53.172;6.974;2023-12-28T07:28:32;10.40;99.90
52513;DHT22;38422;53.172;6.974;2023-12-28T07:30:58;10.30;99.90
52513;DHT22;38422;53.172;6.974;2023-12-28T07:33:23;10.30;99.90
52513;DHT22;38422;53.172;6.974;2023-12-28T07:35:49;10.30;99.90
52513;DHT22;38422;53.172;6.974;2023-12-28T07:38:15;10.30;99.90
52513;DHT22;38422;53.172;6.974;2023-12-28T07:40:41;10.30;99.90
52513;DHT22;38422;53.172;6.974;2023-12-28T07:43:07;10.40;99.90
52513;DHT22;38422;53.172;6.974;2023-12-28T07:45:33;10.40;99.90
52513;DHT22;38422;53.172;6.974;2023-12-28T07:48:01;10.40;99.90
52513;DHT22;38422;53.172;6.974;2023-12-28T07:50:27;10.40;99.90
52513;DHT22;38422;53.172;6.974;2023-12-28T07:52:53;10.40;99.90
52513;DHT22;38422;53.172;6.974;2023-12-28T07:55:19;10.40;99.90
52513;DHT22;38422;53.172;6.974;2023-12-28T07:57:45;10.40;99.90
52513;DHT22;38422;53.172;6.974;2023-12-28T08:00:11;10.40;99.90
52513;DHT22;38422;53.172;6.974;2023-12-28T08:02:37;10.30;99.90
52513;DHT22;38422;53.172;6.974;2023-12-28T08:05:03;10.30;99.90
52513;DHT22;38422;53.172;6.974;2023-12-28T08:07:29;10.30;99.90
52513;DHT22;38422;53.172;6.974;2023-12-28T08:09:55;10.30;99.90
52513;DHT22;38422;53.172;6.974;2023-12-28T08:12:21;10.30;99.90
52513;DHT22;38422;53.172;6.974;2023-12-28T08:14:46;10.30;99.90
52513;DHT22;38422;53.172;6.974;2023-12-28T08:17:12;10.30;99.90
52513;DHT22;38422;53.172;6.974;2023-12-28T08:19:38;10.30;99.90
52513;DHT22;38422;53.172;6.974;2023-12-28T08:22:04;10.30;99.90
52513;DHT22;38422;53.172;6.974;2023-12-28T08:24:30;10.30;99.90
52513;DHT22;38422;53.172;6.974;2023-12-28T08:26:56;10.30;99.90
52513;DHT22;38422;53.172;6.974;2023-12-28T08:29:26;10.30;99.90
52513;DHT22;38422;53.172;6.974;2023-12-28T08:31:52;10.30;99.90
52513;DHT22;38422;53.172;6.974;2023-12-28T08:34:17;10.30;99.90
52513;DHT22;38422;53.172;6.974;2023-12-28T08:36:43;10.30;99.90
52513;DHT22;38422;53.172;6.974;2023-12-28T08:39:09;10.30;99.90
52513;DHT22;38422;53.172;6.974;2023-12-28T08:41:34;10.40;99.90
52513;DHT22;38422;53.172;6.974;2023-12-28T08:44:00;10.40;99.90
52513;DHT22;38422;53.172;6.974;2023-12-28T08:46:26;10.40;99.90
52513;DHT22;38422;53.172;6.974;2023-12-28T08:48:52;10.40;99.90
52513;DHT22;38422;53.172;6.974;2023-12-28T08:51:17;10.40;99.90
52513;DHT22;38422;53.172;6.974;2023-12-28T08:53:43;10.50;99.90
52513;DHT22;38422;53.172;6.974;2023-12-28T08:56:20;10.40;99.90
52513;DHT22;38422;53.172;6.974;2023-12-28T08:58:46;10.40;99.90
52513;DHT22;38422;53.172;6.974;2023-12-28T09:01:23;10.40;99.90
52513;DHT22;38422;53.172;6.974;2023-12-28T09:03:51;10.40;99.90
52513;DHT22;38422;53.172;6.974;2023-12-28T09:06:17;10.40;99.90
52513;DHT22;38422;53.172;6.974;2023-12-28T09:08:44;10.40;99.90
52513;DHT22;38422;53.172;6.974;2023-12-28T09:11:11;10.50;99.90
52513;DHT22;38422;53.172;6.974;2023-12-28T09:13:40;10.50;99.90
52513;DHT22;38422;53.172;6.974;2023-12-28T09:16:16;10.50;99.90
52513;DHT22;38422;53.172;6.974;2023-12-28T09:18:42;10.50;99.90
52513;DHT22;38422;53.172;6.974;2023-12-28T09:21:08;10.50;99.90
52513;DHT22;38422;53.172;6.974;2023-12-28T09:23:35;10.60;99.90
52513;DHT22;38422;53.172;6.974;2023-12-28T09:26:05;10.60;99.90
52513;DHT22;38422;53.172;6.974;2023-12-28T09:28:32;10.60;99.90
52513;DHT22;38422;53.172;6.974;2023-12-28T09:30:58;10.60;99.90
52513;DHT22;38422;53.172;6.974;2023-12-28T09:33:24;10.60;99.90
52513;DHT22;38422;53.172;6.974;2023-12-28T09:35:49;10.60;99.90
52513;DHT22;38422;53.172;6.974;2023-12-28T09:38:15;10.50;99.90
52513;DHT22;38422;53.172;6.974;2023-12-28T09:40:42;10.50;99.90
52513;DHT22;38422;53.172;6.974;2023-12-28T09:43:38;10.60;99.90
52513;DHT22;38422;53.172;6.974;2023-12-28T09:46:07;10.60;99.90
52513;DHT22;38422;53.172;6.974;2023-12-28T09:48:33;10.60;99.90
52513;DHT22;38422;53.172;6.974;2023-12-28T09:51:00;10.60;99.90
52513;DHT22;38422;53.172;6.974;2023-12-28T09:53:26;10.60;99.90
52513;DHT22;38422;53.172;6.974;2023-12-28T09:55:52;10.70;99.90
52513;DHT22;38422;53.172;6.974;2023-12-28T09:58:19;10.70;99.90
52513;DHT22;38422;53.172;6.974;2023-12-28T10:00:46;10.60;99.90
52513;DHT22;38422;53.172;6.974;2023-12-28T10:03:13;10.60;99.90
52513;DHT22;38422;53.172;6.974;2023-12-28T10:05:43;10.60;99.90
52513;DHT22;38422;53.172;6.974;2023-12-28T10:08:13;10.50;99.90
52513;DHT22;38422;53.172;6.974;2023-12-28T10:10:40;10.50;99.90
52513;DHT22;38422;53.172;6.974;2023-12-28T10:13:07;10.60;99.90
52513;DHT22;38422;53.172;6.974;2023-12-28T10:15:33;10.60;99.90
52513;DHT22;38422;53.172;6.974;2023-12-28T10:18:00;10.60;99.90
52513;DHT22;38422;53.172;6.974;2023-12-28T10:20:29;10.70;99.90
52513;DHT22;38422;53.172;6.974;2023-12-28T10:22:55;10.70;99.90
52513;DHT22;38422;53.172;6.974;2023-12-28T10:25:20;10.70;99.90
52513;DHT22;38422;53.172;6.974;2023-12-28T10:27:50;10.70;99.90
52513;DHT22;38422;53.172;6.974;2023-12-28T10:30:16;10.70;99.90
52513;DHT22;38422;53.172;6.974;2023-12-28T10:32:42;10.80;99.90
52513;DHT22;38422;53.172;6.974;2023-12-28T10:35:08;10.80;99.90
52513;DHT22;38422;53.172;6.974;2023-12-28T10:37:35;10.80;99.90
52513;DHT22;38422;53.172;6.974;2023-12-28T10:40:05;10.80;99.90
52513;DHT22;38422;53.172;6.974;2023-12-28T10:43:01;10.80;99.90
52513;DHT22;38422;53.172;6.974;2023-12-28T10:45:30;10.80;99.90
52513;DHT22;38422;53.172;6.974;2023-12-28T10:50:26;10.90;99.90
52513;DHT22;38422;53.172;6.974;2023-12-28T10:52:56;10.90;99.90
52513;DHT22;38422;53.172;6.974;2023-12-28T10:58:21;10.90;99.90
52513;DHT22;38422;53.172;6.974;2023-12-28T11:00:59;10.90;99.90
52513;DHT22;38422;53.172;6.974;2023-12-28T11:03:28;11.00;99.90
52513;DHT22;38422;53.172;6.974;2023-12-28T11:05:56;11.00;99.90
52513;DHT22;38422;53.172;6.974;2023-12-28T11:08:23;11.00;99.90
52513;DHT22;38422;53.172;6.974;2023-12-28T11:10:50;11.00;99.90
52513;DHT22;38422;53.172;6.974;2023-12-28T11:13:20;11.00;99.90
52513;DHT22;38422;53.172;6.974;2023-12-28T11:15:47;11.00;99.90
52513;DHT22;38422;53.172;6.974;2023-12-28T11:18:15;11.00;99.90
52513;DHT22;38422;53.172;6.974;2023-12-28T11:20:42;11.00;99.90
52513;DHT22;38422;53.172;6.974;2023-12-28T11:23:08;11.00;99.90
52513;DHT22;38422;53.172;6.974;2023-12-28T11:25:34;11.00;99.90
52513;DHT22;38422;53.172;6.974;2023-12-28T11:28:09;11.00;99.90
52513;DHT22;38422;53.172;6.974;2023-12-28T11:30:35;11.00;99.90
52513;DHT22;38422;53.172;6.974;2023-12-28T11:33:04;11.00;99.90
52513;DHT22;38422;53.172;6.974;2023-12-28T11:35:40;11.00;99.90
52513;DHT22;38422;53.172;6.974;2023-12-28T11:38:08;10.90;99.90
52513;DHT22;38422;53.172;6.974;2023-12-28T11:40:41;10.90;99.90
52513;DHT22;38422;53.172;6.974;2023-12-28T11:43:24;10.80;99.90
52513;DHT22;38422;53.172;6.974;2023-12-28T11:45:55;10.80;99.90
52513;DHT22;38422;53.172;6.974;2023-12-28T11:48:25;10.80;99.90
52513;DHT22;38422;53.172;6.974;2023-12-28T11:50:57;10.80;99.90
52513;DHT22;38422;53.172;6.974;2023-12-28T11:53:24;10.70;99.90
52513;DHT22;38422;53.172;6.974;2023-12-28T11:55:50;10.60;99.90
52513;DHT22;38422;53.172;6.974;2023-12-28T11:58:17;10.50;99.90
52513;DHT22;38422;53.172;6.974;2023-12-28T12:00:43;10.40;99.90
52513;DHT22;38422;53.172;6.974;2023-12-28T12:03:12;10.40;99.90
52513;DHT22;38422;53.172;6.974;2023-12-28T12:05:39;10.40;99.90
52513;DHT22;38422;53.172;6.974;2023-12-28T12:08:09;10.40;99.90
52513;DHT22;38422;53.172;6.974;2023-12-28T12:10:36;10.40;99.90
52513;DHT22;38422;53.172;6.974;2023-12-28T12:13:03;10.40;99.90
52513;DHT22;38422;53.172;6.974;2023-12-28T12:15:29;10.40;99.90
52513;DHT22;38422;53.172;6.974;2023-12-28T12:17:56;10.40;99.90
52513;DHT22;38422;53.172;6.974;2023-12-28T12:20:22;10.50;99.90
52513;DHT22;38422;53.172;6.974;2023-12-28T12:23:25;10.50;99.90
52513;DHT22;38422;53.172;6.974;2023-12-28T12:25:51;10.50;99.90
52513;DHT22;38422;53.172;6.974;2023-12-28T12:28:17;10.50;99.90
52513;DHT22;38422;53.172;6.974;2023-12-28T12:33:52;10.50;99.90
52513;DHT22;38422;53.172;6.974;2023-12-28T12:36:18;10.50;99.90
52513;DHT22;38422;53.172;6.974;2023-12-28T12:38:44;10.50;99.90
52513;DHT22;38422;53.172;6.974;2023-12-28T12:41:11;10.50;99.90
52513;DHT22;38422;53.172;6.974;2023-12-28T12:43:40;10.50;99.90
52513;DHT22;38422;53.172;6.974;2023-12-28T12:46:06;10.60;99.90
52513;DHT22;38422;53.172;6.974;2023-12-28T12:48:32;10.50;99.90
52513;DHT22;38422;53.172;6.974;2023-12-28T12:51:03;10.60;99.90
52513;DHT22;38422;53.172;6.974;2023-12-28T12:53:36;10.60;99.90
52513;DHT22;38422;53.172;6.974;2023-12-28T12:56:04;10.60;99.90
52513;DHT22;38422;53.172;6.974;2023-12-28T12:58:37;10.70;99.90
52513;DHT22;38422;53.172;6.974;2023-12-28T13:01:03;10.70;99.90
52513;DHT22;38422;53.172;6.974;2023-12-28T13:03:29;10.70;99.90
52513;DHT22;38422;53.172;6.974;2023-12-28T13:05:55;10.70;99.90
52513;DHT22;38422;53.172;6.974;2023-12-28T13:08:22;10.70;99.90
52513;DHT22;38422;53.172;6.974;2023-12-28T13:10:48;10.70;99.90
52513;DHT22;38422;53.172;6.974;2023-12-28T13:13:15;10.70;99.90
52513;DHT22;38422;53.172;6.974;2023-12-28T13:15:46;10.70;99.90
52513;DHT22;38422;53.172;6.974;2023-12-28T13:22:29;10.70;99.90
52513;DHT22;38422;53.172;6.974;2023-12-28T13:35:46;10.70;99.90
52513;DHT22;38422;53.172;6.974;2023-12-28T13:41:52;10.70;99.90
52513;DHT22;38422;53.172;6.974;2023-12-28T13:44:19;10.70;99.90
52513;DHT22;38422;53.172;6.974;2023-12-28T13:46:45;10.80;99.90
52513;DHT22;38422;53.172;6.974;2023-12-28T13:49:12;10.80;99.90
52513;DHT22;38422;53.172;6.974;2023-12-28T13:51:38;10.70;99.90
52513;DHT22;38422;53.172;6.974;2023-12-28T13:54:03;10.70;99.90
52513;DHT22;38422;53.172;6.974;2023-12-28T13:56:29;10.70;99.90
52513;DHT22;38422;53.172;6.974;2023-12-28T13:58:55;10.70;99.90
52513;DHT22;38422;53.172;6.974;2023-12-28T14:01:20;10.70;99.90
52513;DHT22;38422;53.172;6.974;2023-12-28T14:03:46;10.70;99.90
52513;DHT22;38422;53.172;6.974;2023-12-28T14:06:14;10.70;99.90
52513;DHT22;38422;53.172;6.974;2023-12-28T14:08:40;10.70;99.90
52513;DHT22;38422;53.172;6.974;2023-12-28T14:11:05;10.70;99.90
52513;DHT22;38422;53.172;6.974;2023-12-28T14:13:31;10.70;99.90
52513;DHT22;38422;53.172;6.974;2023-12-28T14:15:56;10.70;99.90
52513;DHT22;38422;53.172;6.974;2023-12-28T14:18:22;10.70;99.90
52513;DHT22;38422;53.172;6.974;2023-12-28T14:20:48;10.70;99.90
52513;DHT22;38422;53.172;6.974;2023-12-28T14:23:14;10.70;99.90
52513;DHT22;38422;53.172;6.974;2023-12-28T14:25:40;10.60;99.90
52513;DHT22;38422;53.172;6.974;2023-12-28T14:28:06;10.60;99.90
52513;DHT22;38422;53.172;6.974;2023-12-28T14:30:32;10.60;99.90
52513;DHT22;38422;53.172;6.974;2023-12-28T14:32:58;10.70;99.90
52513;DHT22;38422;53.172;6.974;2023-12-28T14:35:25;10.60;99.90
52513;DHT22;38422;53.172;6.974;2023-12-28T14:37:50;10.60;99.90
52513;DHT22;38422;53.172;6.974;2023-12-28T14:40:16;10.60;99.90
52513;DHT22;38422;53.172;6.974;2023-12-28T14:42:42;10.60;99.90
52513;DHT22;38422;53.172;6.974;2023-12-28T14:45:08;10.60;99.90
52513;DHT22;38422;53.172;6.974;2023-12-28T14:47:34;10.60;99.90
52513;DHT22;38422;53.172;6.974;2023-12-28T14:49:59;10.60;99.90
52513;DHT22;38422;53.172;6.974;2023-12-28T14:52:25;10.50;99.90
52513;DHT22;38422;53.172;6.974;2023-12-28T14:54:51;10.50;99.90
52513;DHT22;38422;53.172;6.974;2023-12-28T14:57:19;10.50;99.90
52513;DHT22;38422;53.172;6.974;2023-12-28T14:59:45;10.40;99.90
52513;DHT22;38422;53.172;6.974;2023-12-28T15:02:11;10.40;99.90
52513;DHT22;38422;53.172;6.974;2023-12-28T15:04:37;10.30;99.90
52513;DHT22;38422;53.172;6.974;2023-12-28T15:07:03;10.30;99.90
52513;DHT22;38422;53.172;6.974;2023-12-28T15:09:29;10.30;99.90
52513;DHT22;38422;53.172;6.974;2023-12-28T15:11:56;10.20;99.90
52513;DHT22;38422;53.172;6.974;2023-12-28T15:14:22;10.20;99.90
52513;DHT22;38422;53.172;6.974;2023-12-28T15:16:48;10.20;99.90
52513;DHT22;38422;53.172;6.974;2023-12-28T15:19:15;10.20;99.90
52513;DHT22;38422;53.172;6.974;2023-12-28T15:21:40;10.10;99.90
52513;DHT22;38422;53.172;6.974;2023-12-28T15:24:07;10.10;99.90
52513;DHT22;38422;53.172;6.974;2023-12-28T15:26:33;10.00;99.90
52513;DHT22;38422;53.172;6.974;2023-12-28T15:28:58;10.00;99.90
52513;DHT22;38422;53.172;6.974;2023-12-28T15:31:24;10.00;99.90
52513;DHT22;38422;53.172;6.974;2023-12-28T15:33:50;9.90;99.90
52513;DHT22;38422;53.172;6.974;2023-12-28T15:36:15;10.00;99.90
52513;DHT22;38422;53.172;6.974;2023-12-28T15:38:43;10.00;99.90
52513;DHT22;38422;53.172;6.974;2023-12-28T15:41:09;10.10;99.90
52513;DHT22;38422;53.172;6.974;2023-12-28T15:43:35;10.10;99.90
52513;DHT22;38422;53.172;6.974;2023-12-28T15:46:00;10.20;99.90
52513;DHT22;38422;53.172;6.974;2023-12-28T15:48:26;10.20;99.90
52513;DHT22;38422;53.172;6.974;2023-12-28T15:50:52;10.20;99.90
52513;DHT22;38422;53.172;6.974;2023-12-28T15:53:17;10.20;99.90
52513;DHT22;38422;53.172;6.974;2023-12-28T15:55:43;10.20;99.90
52513;DHT22;38422;53.172;6.974;2023-12-28T15:58:09;10.20;99.90
52513;DHT22;38422;53.172;6.974;2023-12-28T16:00:34;10.20;99.90